sensor_id;sensor_type;location;lat;lon;timestamp;temperature;humidity
66835;HTU21D;53743;51.100;5.874;2023-06-14T00:00:46;21.28;37.55
66835;HTU21D;53743;51.100;5.874;2023-06-14T00:01:49;21.27;37.50
66835;HTU21D;53743;51.100;5.874;2023-06-14T00:02:51;21.25;37.47
66835;HTU21D;53743;51.100;5.874;2023-06-14T00:03:56;21.24;37.46
66835;HTU21D;53743;51.100;5.874;2023-06-14T00:04:57;21.23;37.50
66835;HTU21D;53743;51.100;5.874;2023-06-14T00:06:00;21.23;37.50
66835;HTU21D;53743;51.100;5.874;2023-06-14T00:07:00;21.21;37.59
66835;HTU21D;53743;51.100;5.874;2023-06-14T00:08:03;21.21;37.72
66835;HTU21D;53743;51.100;5.874;2023-06-14T00:09:07;21.20;37.70
66835;HTU21D;53743;51.100;5.874;2023-06-14T00:10:11;21.19;37.60
66835;HTU21D;53743;51.100;5.874;2023-06-14T00:11:12;21.19;37.63
66835;HTU21D;53743;51.100;5.874;2023-06-14T00:12:14;21.17;37.66
66835;HTU21D;53743;51.100;5.874;2023-06-14T00:13:15;21.17;37.88
66835;HTU21D;53743;51.100;5.874;2023-06-14T00:14:17;21.16;38.16
66835;HTU21D;53743;51.100;5.874;2023-06-14T00:15:18;21.15;38.23
66835;HTU21D;53743;51.100;5.874;2023-06-14T00:16:21;21.13;38.32
66835;HTU21D;53743;51.100;5.874;2023-06-14T00:17:23;21.13;38.42
66835;HTU21D;53743;51.100;5.874;2023-06-14T00:18:26;21.09;38.66
66835;HTU21D;53743;51.100;5.874;2023-06-14T00:19:30;21.09;38.80
66835;HTU21D;53743;51.100;5.874;2023-06-14T00:20:33;21.07;38.90
66835;HTU21D;53743;51.100;5.874;2023-06-14T00:21:34;21.06;38.98
66835;HTU21D;53743;51.100;5.874;2023-06-14T00:22:37;21.05;38.96
66835;HTU21D;53743;51.100;5.874;2023-06-14T00:23:39;21.03;39.00
66835;HTU21D;53743;51.100;5.874;2023-06-14T00:24:41;21.02;39.04
66835;HTU21D;53743;51.100;5.874;2023-06-14T00:25:42;21.02;39.08
66835;HTU21D;53743;51.100;5.874;2023-06-14T00:26:44;21.00;39.17
66835;HTU21D;53743;51.100;5.874;2023-06-14T00:27:45;20.99;39.23
66835;HTU21D;53743;51.100;5.874;2023-06-14T00:28:47;20.99;39.31
66835;HTU21D;53743;51.100;5.874;2023-06-14T00:29:48;20.96;39.36
66835;HTU21D;53743;51.100;5.874;2023-06-14T00:30:50;20.94;39.39
66835;HTU21D;53743;51.100;5.874;2023-06-14T00:31:51;20.94;39.43
66835;HTU21D;53743;51.100;5.874;2023-06-14T00:32:53;20.92;39.43
66835;HTU21D;53743;51.100;5.874;2023-06-14T00:33:55;20.90;39.45
66835;HTU21D;53743;51.100;5.874;2023-06-14T00:34:57;20.88;39.47
66835;HTU21D;53743;51.100;5.874;2023-06-14T00:35:58;20.88;39.42
66835;HTU21D;53743;51.100;5.874;2023-06-14T00:37:00;20.87;39.45
66835;HTU21D;53743;51.100;5.874;2023-06-14T00:38:01;20.85;39.42
66835;HTU21D;53743;51.100;5.874;2023-06-14T00:39:04;20.83;39.15
66835;HTU21D;53743;51.100;5.874;2023-06-14T00:40:05;20.81;39.10
66835;HTU21D;53743;51.100;5.874;2023-06-14T00:41:08;20.79;39.02
66835;HTU21D;53743;51.100;5.874;2023-06-14T00:42:09;20.80;39.01
66835;HTU21D;53743;51.100;5.874;2023-06-14T00:43:11;20.77;38.94
66835;HTU21D;53743;51.100;5.874;2023-06-14T00:44:16;20.76;38.95
66835;HTU21D;53743;51.100;5.874;2023-06-14T00:45:19;20.74;39.11
66835;HTU21D;53743;51.100;5.874;2023-06-14T00:46:21;20.73;39.25
66835;HTU21D;53743;51.100;5.874;2023-06-14T00:47:24;20.70;39.45
66835;HTU21D;53743;51.100;5.874;2023-06-14T00:48:25;20.68;39.49
66835;HTU21D;53743;51.100;5.874;2023-06-14T00:49:31;20.68;39.65
66835;HTU21D;53743;51.100;5.874;2023-06-14T00:50:32;20.65;39.66
66835;HTU21D;53743;51.100;5.874;2023-06-14T00:51:35;20.65;39.73
66835;HTU21D;53743;51.100;5.874;2023-06-14T00:52:38;20.65;39.78
66835;HTU21D;53743;51.100;5.874;2023-06-14T00:53:41;20.62;39.89
66835;HTU21D;53743;51.100;5.874;2023-06-14T00:54:46;20.61;40.04
66835;HTU21D;53743;51.100;5.874;2023-06-14T00:55:48;20.58;40.10
66835;HTU21D;53743;51.100;5.874;2023-06-14T00:56:51;20.56;40.10
66835;HTU21D;53743;51.100;5.874;2023-06-14T00:57:54;20.55;40.07
66835;HTU21D;53743;51.100;5.874;2023-06-14T00:58:56;20.53;40.01
66835;HTU21D;53743;51.100;5.874;2023-06-14T00:59:59;20.53;40.00
66835;HTU21D;53743;51.100;5.874;2023-06-14T01:02:13;20.49;39.94
66835;HTU21D;53743;51.100;5.874;2023-06-14T01:03:16;20.47;41.01
66835;HTU21D;53743;51.100;5.874;2023-06-14T01:04:22;20.44;40.24
66835;HTU21D;53743;51.100;5.874;2023-06-14T01:05:26;20.41;40.37
66835;HTU21D;53743;51.100;5.874;2023-06-14T01:06:33;20.37;40.52
66835;HTU21D;53743;51.100;5.874;2023-06-14T01:07:57;20.37;40.48
66835;HTU21D;53743;51.100;5.874;2023-06-14T01:09:20;20.36;40.65
66835;HTU21D;53743;51.100;5.874;2023-06-14T01:10:38;20.36;40.81
66835;HTU21D;53743;51.100;5.874;2023-06-14T01:11:59;20.31;40.94
66835;HTU21D;53743;51.100;5.874;2023-06-14T01:13:12;20.30;40.91
66835;HTU21D;53743;51.100;5.874;2023-06-14T01:14:18;20.29;40.91
66835;HTU21D;53743;51.100;5.874;2023-06-14T01:15:23;20.26;40.98
66835;HTU21D;53743;51.100;5.874;2023-06-14T01:16:26;20.29;40.84
66835;HTU21D;53743;51.100;5.874;2023-06-14T01:17:30;20.25;40.77
66835;HTU21D;53743;51.100;5.874;2023-06-14T01:18:34;20.22;40.78
66835;HTU21D;53743;51.100;5.874;2023-06-14T01:19:36;20.21;40.82
66835;HTU21D;53743;51.100;5.874;2023-06-14T01:20:41;20.19;40.86
66835;HTU21D;53743;51.100;5.874;2023-06-14T01:21:42;20.18;40.79
66835;HTU21D;53743;51.100;5.874;2023-06-14T01:22:51;20.20;40.76
66835;HTU21D;53743;51.100;5.874;2023-06-14T01:23:53;20.19;40.71
66835;HTU21D;53743;51.100;5.874;2023-06-14T01:24:55;20.19;40.67
66835;HTU21D;53743;51.100;5.874;2023-06-14T01:25:57;20.17;40.72
66835;HTU21D;53743;51.100;5.874;2023-06-14T01:27:00;20.17;40.74
66835;HTU21D;53743;51.100;5.874;2023-06-14T01:28:05;20.15;40.68
66835;HTU21D;53743;51.100;5.874;2023-06-14T01:29:11;20.13;40.78
66835;HTU21D;53743;51.100;5.874;2023-06-14T01:30:21;20.11;40.84
66835;HTU21D;53743;51.100;5.874;2023-06-14T01:31:26;20.09;40.84
66835;HTU21D;53743;51.100;5.874;2023-06-14T01:32:30;20.04;40.81
66835;HTU21D;53743;51.100;5.874;2023-06-14T01:33:33;20.01;41.06
66835;HTU21D;53743;51.100;5.874;2023-06-14T01:34:37;20.00;40.91
66835;HTU21D;53743;51.100;5.874;2023-06-14T01:35:39;19.97;40.92
66835;HTU21D;53743;51.100;5.874;2023-06-14T01:36:44;19.96;41.11
66835;HTU21D;53743;51.100;5.874;2023-06-14T01:37:48;19.92;41.06
66835;HTU21D;53743;51.100;5.874;2023-06-14T01:38:53;19.91;41.09
66835;HTU21D;53743;51.100;5.874;2023-06-14T01:39:57;19.90;41.12
66835;HTU21D;53743;51.100;5.874;2023-06-14T01:41:00;19.88;41.23
66835;HTU21D;53743;51.100;5.874;2023-06-14T01:42:04;19.89;41.13
66835;HTU21D;53743;51.100;5.874;2023-06-14T01:43:10;19.88;41.23
66835;HTU21D;53743;51.100;5.874;2023-06-14T01:44:16;19.87;41.37
66835;HTU21D;53743;51.100;5.874;2023-06-14T01:45:20;19.85;41.46
66835;HTU21D;53743;51.100;5.874;2023-06-14T01:46:25;19.85;41.62
66835;HTU21D;53743;51.100;5.874;2023-06-14T01:47:29;19.83;41.79
66835;HTU21D;53743;51.100;5.874;2023-06-14T01:48:32;19.82;41.94
66835;HTU21D;53743;51.100;5.874;2023-06-14T01:49:34;19.82;42.07
66835;HTU21D;53743;51.100;5.874;2023-06-14T01:50:35;19.80;42.15
66835;HTU21D;53743;51.100;5.874;2023-06-14T01:51:38;19.76;42.19
66835;HTU21D;53743;51.100;5.874;2023-06-14T01:52:39;19.75;42.26
66835;HTU21D;53743;51.100;5.874;2023-06-14T01:53:42;19.72;42.36
66835;HTU21D;53743;51.100;5.874;2023-06-14T01:54:45;19.71;42.45
66835;HTU21D;53743;51.100;5.874;2023-06-14T01:55:48;19.70;42.53
66835;HTU21D;53743;51.100;5.874;2023-06-14T01:56:49;19.68;42.51
66835;HTU21D;53743;51.100;5.874;2023-06-14T01:57:51;19.67;42.58
66835;HTU21D;53743;51.100;5.874;2023-06-14T01:58:52;19.67;42.62
66835;HTU21D;53743;51.100;5.874;2023-06-14T01:59:55;19.65;42.71
66835;HTU21D;53743;51.100;5.874;2023-06-14T02:00:56;19.62;42.73
66835;HTU21D;53743;51.100;5.874;2023-06-14T02:02:03;19.61;42.69
66835;HTU21D;53743;51.100;5.874;2023-06-14T02:03:06;19.60;42.65
66835;HTU21D;53743;51.100;5.874;2023-06-14T02:04:08;19.58;42.61
66835;HTU21D;53743;51.100;5.874;2023-06-14T02:05:09;19.59;42.49
66835;HTU21D;53743;51.100;5.874;2023-06-14T02:06:11;19.59;42.43
66835;HTU21D;53743;51.100;5.874;2023-06-14T02:07:14;19.56;42.47
66835;HTU21D;53743;51.100;5.874;2023-06-14T02:08:16;19.55;42.42
66835;HTU21D;53743;51.100;5.874;2023-06-14T02:09:18;19.54;42.45
66835;HTU21D;53743;51.100;5.874;2023-06-14T02:10:21;19.54;42.48
66835;HTU21D;53743;51.100;5.874;2023-06-14T02:11:22;19.55;42.50
66835;HTU21D;53743;51.100;5.874;2023-06-14T02:12:25;19.53;42.54
66835;HTU21D;53743;51.100;5.874;2023-06-14T02:13:26;19.52;42.68
66835;HTU21D;53743;51.100;5.874;2023-06-14T02:14:28;19.50;42.88
66835;HTU21D;53743;51.100;5.874;2023-06-14T02:15:29;19.48;43.01
66835;HTU21D;53743;51.100;5.874;2023-06-14T02:16:34;19.46;43.10
66835;HTU21D;53743;51.100;5.874;2023-06-14T02:17:36;19.44;43.23
66835;HTU21D;53743;51.100;5.874;2023-06-14T02:18:40;19.43;43.31
66835;HTU21D;53743;51.100;5.874;2023-06-14T02:19:41;19.39;43.35
66835;HTU21D;53743;51.100;5.874;2023-06-14T02:20:44;19.38;43.46
66835;HTU21D;53743;51.100;5.874;2023-06-14T02:21:47;19.37;43.58
66835;HTU21D;53743;51.100;5.874;2023-06-14T02:22:49;19.37;43.67
66835;HTU21D;53743;51.100;5.874;2023-06-14T02:23:50;19.35;43.77
66835;HTU21D;53743;51.100;5.874;2023-06-14T02:24:53;19.33;43.77
66835;HTU21D;53743;51.100;5.874;2023-06-14T02:25:54;19.31;43.84
66835;HTU21D;53743;51.100;5.874;2023-06-14T02:26:56;19.30;43.88
66835;HTU21D;53743;51.100;5.874;2023-06-14T02:27:57;19.28;43.97
66835;HTU21D;53743;51.100;5.874;2023-06-14T02:28:59;19.28;44.03
66835;HTU21D;53743;51.100;5.874;2023-06-14T02:30:01;19.26;44.07
66835;HTU21D;53743;51.100;5.874;2023-06-14T02:31:06;19.24;44.16
66835;HTU21D;53743;51.100;5.874;2023-06-14T02:32:08;19.22;44.20
66835;HTU21D;53743;51.100;5.874;2023-06-14T02:33:10;19.21;44.14
66835;HTU21D;53743;51.100;5.874;2023-06-14T02:34:14;19.20;44.08
66835;HTU21D;53743;51.100;5.874;2023-06-14T02:35:17;19.17;44.29
66835;HTU21D;53743;51.100;5.874;2023-06-14T02:36:21;19.20;43.95
66835;HTU21D;53743;51.100;5.874;2023-06-14T02:37:21;19.20;43.88
66835;HTU21D;53743;51.100;5.874;2023-06-14T02:38:24;19.17;43.85
66835;HTU21D;53743;51.100;5.874;2023-06-14T02:39:25;19.15;43.90
66835;HTU21D;53743;51.100;5.874;2023-06-14T02:40:28;19.15;43.91
66835;HTU21D;53743;51.100;5.874;2023-06-14T02:41:31;19.14;43.93
66835;HTU21D;53743;51.100;5.874;2023-06-14T02:42:33;19.10;44.04
66835;HTU21D;53743;51.100;5.874;2023-06-14T02:43:34;19.10;44.00
66835;HTU21D;53743;51.100;5.874;2023-06-14T02:44:36;19.12;43.99
66835;HTU21D;53743;51.100;5.874;2023-06-14T02:45:37;19.10;44.04
66835;HTU21D;53743;51.100;5.874;2023-06-14T02:46:40;19.09;44.06
66835;HTU21D;53743;51.100;5.874;2023-06-14T02:47:41;19.07;44.09
66835;HTU21D;53743;51.100;5.874;2023-06-14T02:48:45;19.06;44.16
66835;HTU21D;53743;51.100;5.874;2023-06-14T02:49:46;19.06;44.11
66835;HTU21D;53743;51.100;5.874;2023-06-14T02:50:49;19.02;44.19
66835;HTU21D;53743;51.100;5.874;2023-06-14T02:51:51;19.02;44.24
66835;HTU21D;53743;51.100;5.874;2023-06-14T02:52:53;19.01;44.32
66835;HTU21D;53743;51.100;5.874;2023-06-14T02:53:57;18.98;44.31
66835;HTU21D;53743;51.100;5.874;2023-06-14T02:54:59;18.99;44.29
66835;HTU21D;53743;51.100;5.874;2023-06-14T02:56:02;18.99;44.44
66835;HTU21D;53743;51.100;5.874;2023-06-14T02:57:05;18.97;44.57
66835;HTU21D;53743;51.100;5.874;2023-06-14T02:58:08;18.95;44.48
66835;HTU21D;53743;51.100;5.874;2023-06-14T02:59:11;18.92;44.54
66835;HTU21D;53743;51.100;5.874;2023-06-14T03:00:14;18.91;44.58
66835;HTU21D;53743;51.100;5.874;2023-06-14T03:01:20;18.89;44.64
66835;HTU21D;53743;51.100;5.874;2023-06-14T03:02:22;18.89;44.73
66835;HTU21D;53743;51.100;5.874;2023-06-14T03:03:24;18.87;44.81
66835;HTU21D;53743;51.100;5.874;2023-06-14T03:04:28;18.82;44.88
66835;HTU21D;53743;51.100;5.874;2023-06-14T03:05:37;18.78;44.98
66835;HTU21D;53743;51.100;5.874;2023-06-14T03:06:41;18.74;45.00
66835;HTU21D;53743;51.100;5.874;2023-06-14T03:07:45;18.73;45.09
66835;HTU21D;53743;51.100;5.874;2023-06-14T03:08:48;18.72;45.15
66835;HTU21D;53743;51.100;5.874;2023-06-14T03:09:50;18.71;45.32
66835;HTU21D;53743;51.100;5.874;2023-06-14T03:10:53;18.69;45.48
66835;HTU21D;53743;51.100;5.874;2023-06-14T03:11:56;18.69;45.61
66835;HTU21D;53743;51.100;5.874;2023-06-14T03:12:58;18.67;45.72
66835;HTU21D;53743;51.100;5.874;2023-06-14T03:13:59;18.66;45.78
66835;HTU21D;53743;51.100;5.874;2023-06-14T03:15:04;18.65;45.89
66835;HTU21D;53743;51.100;5.874;2023-06-14T03:16:10;18.63;45.95
66835;HTU21D;53743;51.100;5.874;2023-06-14T03:17:14;18.63;46.00
66835;HTU21D;53743;51.100;5.874;2023-06-14T03:18:16;18.62;45.89
66835;HTU21D;53743;51.100;5.874;2023-06-14T03:19:18;18.64;45.90
66835;HTU21D;53743;51.100;5.874;2023-06-14T03:20:19;18.62;45.80
66835;HTU21D;53743;51.100;5.874;2023-06-14T03:21:22;18.62;45.77
66835;HTU21D;53743;51.100;5.874;2023-06-14T03:22:24;18.64;45.79
66835;HTU21D;53743;51.100;5.874;2023-06-14T03:23:27;18.63;45.86
66835;HTU21D;53743;51.100;5.874;2023-06-14T03:24:28;18.62;45.93
66835;HTU21D;53743;51.100;5.874;2023-06-14T03:25:33;18.59;46.07
66835;HTU21D;53743;51.100;5.874;2023-06-14T03:26:36;18.58;46.14
66835;HTU21D;53743;51.100;5.874;2023-06-14T03:27:40;18.56;46.16
66835;HTU21D;53743;51.100;5.874;2023-06-14T03:28:41;18.55;46.19
66835;HTU21D;53743;51.100;5.874;2023-06-14T03:29:43;18.55;46.18
66835;HTU21D;53743;51.100;5.874;2023-06-14T03:30:45;18.54;46.25
66835;HTU21D;53743;51.100;5.874;2023-06-14T03:31:57;18.53;46.31
66835;HTU21D;53743;51.100;5.874;2023-06-14T03:33:01;18.53;46.39
66835;HTU21D;53743;51.100;5.874;2023-06-14T03:34:06;18.49;46.27
66835;HTU21D;53743;51.100;5.874;2023-06-14T03:35:08;18.49;46.35
66835;HTU21D;53743;51.100;5.874;2023-06-14T03:36:17;18.49;46.40
66835;HTU21D;53743;51.100;5.874;2023-06-14T03:37:19;18.49;46.54
66835;HTU21D;53743;51.100;5.874;2023-06-14T03:38:21;18.50;46.49
66835;HTU21D;53743;51.100;5.874;2023-06-14T03:39:25;18.49;46.64
66835;HTU21D;53743;51.100;5.874;2023-06-14T03:40:26;18.47;46.60
66835;HTU21D;53743;51.100;5.874;2023-06-14T03:41:34;18.48;46.53
66835;HTU21D;53743;51.100;5.874;2023-06-14T03:42:35;18.48;46.59
66835;HTU21D;53743;51.100;5.874;2023-06-14T03:43:39;18.47;46.51
66835;HTU21D;53743;51.100;5.874;2023-06-14T03:44:40;18.50;46.47
66835;HTU21D;53743;51.100;5.874;2023-06-14T03:45:42;18.51;46.48
66835;HTU21D;53743;51.100;5.874;2023-06-14T03:46:44;18.50;46.47
66835;HTU21D;53743;51.100;5.874;2023-06-14T03:47:47;18.50;46.53
66835;HTU21D;53743;51.100;5.874;2023-06-14T03:48:48;18.50;46.63
66835;HTU21D;53743;51.100;5.874;2023-06-14T03:49:51;18.46;48.30
66835;HTU21D;53743;51.100;5.874;2023-06-14T03:50:52;18.44;46.94
66835;HTU21D;53743;51.100;5.874;2023-06-14T03:51:55;18.43;46.98
66835;HTU21D;53743;51.100;5.874;2023-06-14T03:52:59;18.41;47.12
66835;HTU21D;53743;51.100;5.874;2023-06-14T03:54:02;18.39;47.16
66835;HTU21D;53743;51.100;5.874;2023-06-14T03:55:05;18.39;47.21
66835;HTU21D;53743;51.100;5.874;2023-06-14T03:56:08;18.40;47.12
66835;HTU21D;53743;51.100;5.874;2023-06-14T03:57:15;18.43;47.06
66835;HTU21D;53743;51.100;5.874;2023-06-14T03:58:18;18.47;47.23
66835;HTU21D;53743;51.100;5.874;2023-06-14T03:59:21;18.46;47.05
66835;HTU21D;53743;51.100;5.874;2023-06-14T04:00:23;18.47;47.08
66835;HTU21D;53743;51.100;5.874;2023-06-14T04:01:24;18.49;47.03
66835;HTU21D;53743;51.100;5.874;2023-06-14T04:02:28;18.49;47.17
66835;HTU21D;53743;51.100;5.874;2023-06-14T04:03:29;18.50;47.04
66835;HTU21D;53743;51.100;5.874;2023-06-14T04:04:34;18.52;47.03
66835;HTU21D;53743;51.100;5.874;2023-06-14T04:05:35;18.53;47.04
66835;HTU21D;53743;51.100;5.874;2023-06-14T04:06:38;18.53;47.18
66835;HTU21D;53743;51.100;5.874;2023-06-14T04:07:41;18.55;47.07
66835;HTU21D;53743;51.100;5.874;2023-06-14T04:08:45;18.54;47.14
66835;HTU21D;53743;51.100;5.874;2023-06-14T04:09:47;18.51;47.25
66835;HTU21D;53743;51.100;5.874;2023-06-14T04:10:49;18.49;47.31
66835;HTU21D;53743;51.100;5.874;2023-06-14T04:11:50;18.46;47.59
66835;HTU21D;53743;51.100;5.874;2023-06-14T04:12:53;18.46;47.57
66835;HTU21D;53743;51.100;5.874;2023-06-14T04:13:54;18.46;47.58
66835;HTU21D;53743;51.100;5.874;2023-06-14T04:14:58;18.44;47.64
66835;HTU21D;53743;51.100;5.874;2023-06-14T04:16:00;18.43;47.70
66835;HTU21D;53743;51.100;5.874;2023-06-14T04:17:08;18.46;47.74
66835;HTU21D;53743;51.100;5.874;2023-06-14T04:18:11;18.47;47.81
66835;HTU21D;53743;51.100;5.874;2023-06-14T04:19:14;18.48;47.76
66835;HTU21D;53743;51.100;5.874;2023-06-14T04:20:15;18.49;48.04
66835;HTU21D;53743;51.100;5.874;2023-06-14T04:21:18;18.48;47.80
66835;HTU21D;53743;51.100;5.874;2023-06-14T04:22:20;18.47;47.92
66835;HTU21D;53743;51.100;5.874;2023-06-14T04:23:22;18.47;47.85
66835;HTU21D;53743;51.100;5.874;2023-06-14T04:24:24;18.48;48.01
66835;HTU21D;53743;51.100;5.874;2023-06-14T04:25:32;18.51;47.72
66835;HTU21D;53743;51.100;5.874;2023-06-14T04:26:35;18.54;47.73
66835;HTU21D;53743;51.100;5.874;2023-06-14T04:27:37;18.55;47.79
66835;HTU21D;53743;51.100;5.874;2023-06-14T04:28:40;18.57;47.82
66835;HTU21D;53743;51.100;5.874;2023-06-14T04:29:42;18.57;47.95
66835;HTU21D;53743;51.100;5.874;2023-06-14T04:30:48;18.56;47.86
66835;HTU21D;53743;51.100;5.874;2023-06-14T04:31:51;18.59;47.79
66835;HTU21D;53743;51.100;5.874;2023-06-14T04:32:55;18.61;48.53
66835;HTU21D;53743;51.100;5.874;2023-06-14T04:33:56;18.57;47.96
66835;HTU21D;53743;51.100;5.874;2023-06-14T04:35:00;18.58;47.86
66835;HTU21D;53743;51.100;5.874;2023-06-14T04:36:05;18.62;47.78
66835;HTU21D;53743;51.100;5.874;2023-06-14T04:37:08;18.62;47.89
66835;HTU21D;53743;51.100;5.874;2023-06-14T04:38:13;18.61;48.00
66835;HTU21D;53743;51.100;5.874;2023-06-14T04:39:16;18.62;47.95
66835;HTU21D;53743;51.100;5.874;2023-06-14T04:40:19;18.63;47.89
66835;HTU21D;53743;51.100;5.874;2023-06-14T04:41:21;18.63;47.86
66835;HTU21D;53743;51.100;5.874;2023-06-14T04:42:24;18.67;47.89
66835;HTU21D;53743;51.100;5.874;2023-06-14T04:43:33;18.68;47.82
66835;HTU21D;53743;51.100;5.874;2023-06-14T04:44:38;18.67;47.86
66835;HTU21D;53743;51.100;5.874;2023-06-14T04:45:40;18.68;47.99
66835;HTU21D;53743;51.100;5.874;2023-06-14T04:46:47;18.71;47.87
66835;HTU21D;53743;51.100;5.874;2023-06-14T04:47:56;18.69;47.96
66835;HTU21D;53743;51.100;5.874;2023-06-14T04:49:02;18.73;47.88
66835;HTU21D;53743;51.100;5.874;2023-06-14T04:50:03;18.73;48.63
66835;HTU21D;53743;51.100;5.874;2023-06-14T04:51:07;18.74;47.99
66835;HTU21D;53743;51.100;5.874;2023-06-14T04:52:08;18.79;47.94
66835;HTU21D;53743;51.100;5.874;2023-06-14T04:53:16;18.81;47.97
66835;HTU21D;53743;51.100;5.874;2023-06-14T04:54:17;18.83;48.15
66835;HTU21D;53743;51.100;5.874;2023-06-14T04:55:20;18.83;48.60
66835;HTU21D;53743;51.100;5.874;2023-06-14T04:56:22;18.83;48.83
66835;HTU21D;53743;51.100;5.874;2023-06-14T04:57:25;18.96;48.50
66835;HTU21D;53743;51.100;5.874;2023-06-14T04:58:30;19.24;48.05
66835;HTU21D;53743;51.100;5.874;2023-06-14T04:59:33;19.63;47.28
66835;HTU21D;53743;51.100;5.874;2023-06-14T05:00:36;20.18;46.25
66835;HTU21D;53743;51.100;5.874;2023-06-14T05:01:38;20.83;44.76
66835;HTU21D;53743;51.100;5.874;2023-06-14T05:02:41;21.60;42.58
66835;HTU21D;53743;51.100;5.874;2023-06-14T05:03:43;22.33;40.88
66835;HTU21D;53743;51.100;5.874;2023-06-14T05:04:45;22.97;38.87
66835;HTU21D;53743;51.100;5.874;2023-06-14T05:05:48;23.51;38.17
66835;HTU21D;53743;51.100;5.874;2023-06-14T05:06:49;24.04;37.08
66835;HTU21D;53743;51.100;5.874;2023-06-14T05:07:52;24.55;35.70
66835;HTU21D;53743;51.100;5.874;2023-06-14T05:08:53;24.87;34.25
66835;HTU21D;53743;51.100;5.874;2023-06-14T05:09:55;25.20;34.57
66835;HTU21D;53743;51.100;5.874;2023-06-14T05:10:56;25.52;33.86
66835;HTU21D;53743;51.100;5.874;2023-06-14T05:11:58;25.86;33.27
66835;HTU21D;53743;51.100;5.874;2023-06-14T05:13:01;26.28;32.59
66835;HTU21D;53743;51.100;5.874;2023-06-14T05:14:04;26.62;30.81
66835;HTU21D;53743;51.100;5.874;2023-06-14T05:15:07;26.94;30.43
66835;HTU21D;53743;51.100;5.874;2023-06-14T05:16:11;27.15;30.42
66835;HTU21D;53743;51.100;5.874;2023-06-14T05:17:13;27.42;30.04
66835;HTU21D;53743;51.100;5.874;2023-06-14T05:18:16;27.71;28.89
66835;HTU21D;53743;51.100;5.874;2023-06-14T05:19:18;28.08;27.41
66835;HTU21D;53743;51.100;5.874;2023-06-14T05:20:19;28.40;28.29
66835;HTU21D;53743;51.100;5.874;2023-06-14T05:21:21;28.59;28.04
66835;HTU21D;53743;51.100;5.874;2023-06-14T05:22:23;28.76;27.58
66835;HTU21D;53743;51.100;5.874;2023-06-14T05:23:25;28.90;26.97
66835;HTU21D;53743;51.100;5.874;2023-06-14T05:24:27;28.98;25.53
66835;HTU21D;53743;51.100;5.874;2023-06-14T05:25:30;29.00;26.23
66835;HTU21D;53743;51.100;5.874;2023-06-14T05:26:32;29.00;26.21
66835;HTU21D;53743;51.100;5.874;2023-06-14T05:27:34;29.11;26.84
66835;HTU21D;53743;51.100;5.874;2023-06-14T05:28:37;29.16;26.68
66835;HTU21D;53743;51.100;5.874;2023-06-14T05:29:38;29.11;26.61
66835;HTU21D;53743;51.100;5.874;2023-06-14T05:30:40;28.85;26.67
66835;HTU21D;53743;51.100;5.874;2023-06-14T05:31:41;28.69;27.52
66835;HTU21D;53743;51.100;5.874;2023-06-14T05:32:43;28.53;27.73
66835;HTU21D;53743;51.100;5.874;2023-06-14T05:33:46;28.53;27.74
66835;HTU21D;53743;51.100;5.874;2023-06-14T05:34:48;28.60;27.43
66835;HTU21D;53743;51.100;5.874;2023-06-14T05:35:50;28.60;27.45
66835;HTU21D;53743;51.100;5.874;2023-06-14T05:36:52;28.56;27.47
66835;HTU21D;53743;51.100;5.874;2023-06-14T05:37:53;28.57;27.45
66835;HTU21D;53743;51.100;5.874;2023-06-14T05:38:55;28.57;27.13
66835;HTU21D;53743;51.100;5.874;2023-06-14T05:39:58;28.60;27.55
66835;HTU21D;53743;51.100;5.874;2023-06-14T05:41:00;28.76;27.55
66835;HTU21D;53743;51.100;5.874;2023-06-14T05:42:02;28.92;27.06
66835;HTU21D;53743;51.100;5.874;2023-06-14T05:43:04;29.06;26.71
66835;HTU21D;53743;51.100;5.874;2023-06-14T05:44:06;29.32;26.60
66835;HTU21D;53743;51.100;5.874;2023-06-14T05:45:08;29.59;26.18
66835;HTU21D;53743;51.100;5.874;2023-06-14T05:46:10;29.73;24.99
66835;HTU21D;53743;51.100;5.874;2023-06-14T05:47:11;29.79;25.59
66835;HTU21D;53743;51.100;5.874;2023-06-14T05:48:13;29.67;25.14
66835;HTU21D;53743;51.100;5.874;2023-06-14T05:49:16;29.59;25.60
66835;HTU21D;53743;51.100;5.874;2023-06-14T05:50:18;29.58;25.14
66835;HTU21D;53743;51.100;5.874;2023-06-14T05:51:19;29.71;25.04
66835;HTU21D;53743;51.100;5.874;2023-06-14T05:52:21;29.79;24.82
66835;HTU21D;53743;51.100;5.874;2023-06-14T05:53:22;29.91;25.30
66835;HTU21D;53743;51.100;5.874;2023-06-14T05:54:24;30.01;24.19
66835;HTU21D;53743;51.100;5.874;2023-06-14T05:55:25;30.13;24.48
66835;HTU21D;53743;51.100;5.874;2023-06-14T05:56:27;30.28;23.78
66835;HTU21D;53743;51.100;5.874;2023-06-14T05:57:28;30.38;23.50
66835;HTU21D;53743;51.100;5.874;2023-06-14T05:58:30;30.34;23.89
66835;HTU21D;53743;51.100;5.874;2023-06-14T05:59:32;30.15;23.98
66835;HTU21D;53743;51.100;5.874;2023-06-14T06:00:33;30.06;24.08
66835;HTU21D;53743;51.100;5.874;2023-06-14T06:01:36;30.05;24.07
66835;HTU21D;53743;51.100;5.874;2023-06-14T06:02:38;30.10;23.91
66835;HTU21D;53743;51.100;5.874;2023-06-14T06:03:40;30.31;23.88
66835;HTU21D;53743;51.100;5.874;2023-06-14T06:04:43;30.60;24.07
66835;HTU21D;53743;51.100;5.874;2023-06-14T06:05:45;30.77;23.79
66835;HTU21D;53743;51.100;5.874;2023-06-14T06:06:46;30.96;23.34
66835;HTU21D;53743;51.100;5.874;2023-06-14T06:07:49;31.23;23.14
66835;HTU21D;53743;51.100;5.874;2023-06-14T06:08:50;31.35;22.68
66835;HTU21D;53743;51.100;5.874;2023-06-14T06:09:52;31.31;22.58
66835;HTU21D;53743;51.100;5.874;2023-06-14T06:10:53;31.24;22.69
66835;HTU21D;53743;51.100;5.874;2023-06-14T06:11:55;31.34;22.76
66835;HTU21D;53743;51.100;5.874;2023-06-14T06:12:56;31.52;21.89
66835;HTU21D;53743;51.100;5.874;2023-06-14T06:13:58;31.69;22.56
66835;HTU21D;53743;51.100;5.874;2023-06-14T06:14:59;31.85;21.46
66835;HTU21D;53743;51.100;5.874;2023-06-14T06:16:01;32.01;21.95
66835;HTU21D;53743;51.100;5.874;2023-06-14T06:17:03;32.07;20.89
66835;HTU21D;53743;51.100;5.874;2023-06-14T06:18:05;32.10;20.29
66835;HTU21D;53743;51.100;5.874;2023-06-14T06:19:07;31.92;20.89
66835;HTU21D;53743;51.100;5.874;2023-06-14T06:20:11;31.97;20.97
66835;HTU21D;53743;51.100;5.874;2023-06-14T06:21:12;31.89;20.50
66835;HTU21D;53743;51.100;5.874;2023-06-14T06:22:14;31.78;20.74
66835;HTU21D;53743;51.100;5.874;2023-06-14T06:23:15;31.69;20.95
66835;HTU21D;53743;51.100;5.874;2023-06-14T06:24:17;31.55;21.38
66835;HTU21D;53743;51.100;5.874;2023-06-14T06:25:18;31.65;21.35
66835;HTU21D;53743;51.100;5.874;2023-06-14T06:26:22;31.69;21.14
66835;HTU21D;53743;51.100;5.874;2023-06-14T06:27:23;31.75;20.37
66835;HTU21D;53743;51.100;5.874;2023-06-14T06:28:26;31.66;20.64
66835;HTU21D;53743;51.100;5.874;2023-06-14T06:29:28;31.61;21.11
66835;HTU21D;53743;51.100;5.874;2023-06-14T06:30:29;31.49;21.06
66835;HTU21D;53743;51.100;5.874;2023-06-14T06:31:31;31.45;21.19
66835;HTU21D;53743;51.100;5.874;2023-06-14T06:32:32;31.49;21.15